createdAt,value
2023-05-14T00:15:39.171Z,5.80
2023-05-14T00:18:07.044Z,8.68
2023-05-14T00:20:33.607Z,6.28
2023-05-14T00:23:00.357Z,7.65
2023-05-14T00:25:26.992Z,9.85
2023-05-14T00:45:16.820Z,11.80
2023-05-14T01:04:07.934Z,9.40
2023-05-14T01:15:39.946Z,10.10
2023-05-14T01:21:44.582Z,10.25
2023-05-14T01:29:23.290Z,10.05
2023-05-14T02:06:23.554Z,11.15
2023-05-14T02:15:39.310Z,8.88
2023-05-14T02:32:39.292Z,9.27
2023-05-14T02:35:07.028Z,8.40
2023-05-14T02:47:13.210Z,7.97
2023-05-14T02:50:06.411Z,7.15
2023-05-14T02:52:32.999Z,7.90
2023-05-14T02:54:59.555Z,8.98
2023-05-14T02:57:26.109Z,9.30
2023-05-14T02:59:52.612Z,9.77
2023-05-14T03:02:19.637Z,9.05
2023-05-14T03:04:46.765Z,9.25
2023-05-14T03:07:13.623Z,9.32
2023-05-14T03:09:40.060Z,10.65
2023-05-14T03:12:07.405Z,11.07
2023-05-14T03:14:34.007Z,8.32
2023-05-14T03:17:00.687Z,10.55
2023-05-14T03:19:27.172Z,9.75
2023-05-14T03:21:53.647Z,7.95
2023-05-14T03:24:20.181Z,8.38
2023-05-14T03:26:46.637Z,8.68
2023-05-14T03:29:13.051Z,10.55
2023-05-14T03:31:39.541Z,8.35
2023-05-14T03:34:05.988Z,9.18
2023-05-14T03:36:32.862Z,7.82
2023-05-14T03:38:59.341Z,8.82
2023-05-14T03:41:26.135Z,8.52
2023-05-14T03:43:52.779Z,9.02
2023-05-14T03:46:19.180Z,9.27
2023-05-14T03:48:45.729Z,6.88
2023-05-14T03:51:12.232Z,8.75
2023-05-14T03:53:38.676Z,7.05
2023-05-14T03:56:05.219Z,6.53
2023-05-14T03:58:31.711Z,7.30
2023-05-14T04:00:58.193Z,6.30
2023-05-14T04:03:24.772Z,5.93
2023-05-14T04:05:51.434Z,6.97
2023-05-14T04:08:17.899Z,4.53
2023-05-14T04:10:44.414Z,6.88
2023-05-14T04:13:10.961Z,4.28
2023-05-14T04:15:39.235Z,4.90
2023-05-14T04:18:06.110Z,5.82
2023-05-14T04:20:32.704Z,4.72
2023-05-14T04:22:59.201Z,4.65
2023-05-14T04:25:25.743Z,5.40
2023-05-14T04:27:52.239Z,6.07
2023-05-14T04:30:18.789Z,7.50
2023-05-14T04:32:45.563Z,4.68
2023-05-14T04:35:12.862Z,5.05
2023-05-14T04:37:39.351Z,4.10
2023-05-14T04:40:08.965Z,6.25
2023-05-14T04:42:35.397Z,6.53
2023-05-14T04:45:01.927Z,4.35
2023-05-14T04:47:28.431Z,6.07
2023-05-14T04:49:54.904Z,5.45
2023-05-14T04:52:21.349Z,6.38
2023-05-14T04:54:47.924Z,4.43
2023-05-14T04:57:14.419Z,6.85
2023-05-14T04:59:40.859Z,5.53
2023-05-14T05:02:07.359Z,6.53
2023-05-14T05:04:33.783Z,4.53
2023-05-14T05:07:00.362Z,5.43
2023-05-14T05:09:26.822Z,4.68
2023-05-14T05:11:53.284Z,6.88
2023-05-14T05:14:19.849Z,6.47
2023-05-14T05:16:46.325Z,5.25
2023-05-14T05:19:12.883Z,5.03
2023-05-14T05:21:40.748Z,6.78
2023-05-14T05:24:08.039Z,5.28
2023-05-14T05:26:36.783Z,4.20
2023-05-14T05:29:04.290Z,6.57
2023-05-14T05:31:31.390Z,5.05
2023-05-14T05:33:59.554Z,10.27
2023-05-14T05:36:26.165Z,5.30
2023-05-14T05:38:52.899Z,6.30
2023-05-14T05:44:01.377Z,4.82
2023-05-14T05:46:28.502Z,6.18
2023-05-14T05:51:26.763Z,10.48
2023-05-14T05:53:53.307Z,7.72
2023-05-14T05:56:19.933Z,8.65
2023-05-14T05:58:46.406Z,6.07
2023-05-14T06:01:12.873Z,6.93
2023-05-14T06:03:39.396Z,5.57
2023-05-14T06:06:06.463Z,8.15
2023-05-14T06:08:34.417Z,5.43
2023-05-14T06:11:00.841Z,6.57
2023-05-14T06:13:27.332Z,5.55
2023-05-14T06:15:53.799Z,6.80
2023-05-14T06:18:20.294Z,6.75
2023-05-14T06:20:46.750Z,7.72
2023-05-14T06:23:13.200Z,11.05
2023-05-14T06:25:39.698Z,5.18
2023-05-14T06:28:06.166Z,6.22
2023-05-14T06:30:32.592Z,7.32
2023-05-14T06:32:59.161Z,5.05
2023-05-14T06:38:03.450Z,6.72
2023-05-14T06:40:30.259Z,5.90
2023-05-14T06:45:33.104Z,4.63
2023-05-14T06:48:00.252Z,6.35
2023-05-14T06:50:26.775Z,6.28
2023-05-14T06:59:41.438Z,6.45
2023-05-14T07:02:07.931Z,8.52
2023-05-14T07:04:52.434Z,5.90
2023-05-14T07:07:21.200Z,4.78
2023-05-14T07:12:12.847Z,6.30
2023-05-14T07:14:39.331Z,6.13
2023-05-14T07:17:05.934Z,5.43
2023-05-14T07:19:32.450Z,5.93
2023-05-14T07:21:58.906Z,4.03
2023-05-14T07:24:25.450Z,6.43
2023-05-14T07:26:52.014Z,5.07
2023-05-14T07:29:18.461Z,5.28
2023-05-14T07:31:45.113Z,4.82
2023-05-14T07:34:12.732Z,6.65
2023-05-14T07:36:39.269Z,6.72
2023-05-14T07:39:05.732Z,5.15
2023-05-14T07:41:32.237Z,7.15
2023-05-14T07:43:58.726Z,8.90
2023-05-14T07:46:25.814Z,3.92
2023-05-14T07:48:52.288Z,3.80
2023-05-14T07:51:18.768Z,5.13
2023-05-14T07:53:45.262Z,6.10
2023-05-14T07:56:11.698Z,4.72
2023-05-14T07:58:38.323Z,7.53
2023-05-14T08:01:07.124Z,4.30
2023-05-14T08:03:34.272Z,4.22
2023-05-14T08:06:00.834Z,7.97
2023-05-14T08:08:27.666Z,3.65
2023-05-14T08:10:54.125Z,3.50
2023-05-14T08:13:20.576Z,6.47
2023-05-14T08:15:47.284Z,5.60
2023-05-14T08:18:13.728Z,5.72
2023-05-14T08:20:40.158Z,5.47
2023-05-14T08:23:07.430Z,4.65
2023-05-14T08:25:34.021Z,5.50
2023-05-14T08:28:01.332Z,4.82
2023-05-14T08:30:28.461Z,3.78
2023-05-14T08:32:55.133Z,3.63
2023-05-14T08:35:21.620Z,9.77
2023-05-14T08:37:49.590Z,4.85
2023-05-14T08:40:16.329Z,6.32
2023-05-14T08:42:45.146Z,11.88
2023-05-14T08:45:20.370Z,3.80
2023-05-14T08:50:33.906Z,5.03
2023-05-14T08:53:00.383Z,4.32
2023-05-14T08:55:27.069Z,5.28
2023-05-14T08:57:53.710Z,5.68
2023-05-14T09:00:20.388Z,3.63
2023-05-14T09:02:47.916Z,3.88
2023-05-14T09:05:14.940Z,3.22
2023-05-14T09:07:41.492Z,4.55
2023-05-14T09:10:09.134Z,3.03
2023-05-14T09:12:35.733Z,3.05
2023-05-14T09:15:02.245Z,4.30
2023-05-14T09:17:28.818Z,2.60
2023-05-14T09:19:55.842Z,3.42
2023-05-14T09:22:22.376Z,2.78
2023-05-14T09:25:09.516Z,4.10
2023-05-14T09:27:36.437Z,4.60
2023-05-14T09:30:13.708Z,4.80
2023-05-14T09:32:45.715Z,3.22
2023-05-14T09:35:18.167Z,3.25
2023-05-14T09:37:49.303Z,2.40
2023-05-14T09:40:17.153Z,3.13
2023-05-14T09:42:43.747Z,3.15
2023-05-14T09:45:10.913Z,3.38
2023-05-14T09:47:38.480Z,3.63
2023-05-14T09:50:06.296Z,3.33
2023-05-14T09:52:33.125Z,3.03
2023-05-14T09:55:00.410Z,3.78
2023-05-14T09:57:27.251Z,3.88
2023-05-14T09:59:54.146Z,4.78
2023-05-14T10:02:25.086Z,3.63
2023-05-14T10:04:53.983Z,5.22
2023-05-14T10:07:27.365Z,4.10
2023-05-14T10:09:59.354Z,3.88
2023-05-14T10:12:27.339Z,3.10
2023-05-14T10:14:56.652Z,4.28
2023-05-14T10:17:26.236Z,4.90
2023-05-14T10:19:54.593Z,4.10
2023-05-14T10:22:23.826Z,3.33
2023-05-14T10:24:53.923Z,4.13
2023-05-14T10:27:21.588Z,6.78
2023-05-14T10:29:55.682Z,4.18
2023-05-14T10:32:26.650Z,4.88
2023-05-14T10:34:53.500Z,3.63
2023-05-14T10:37:24.497Z,4.53
2023-05-14T10:39:58.135Z,5.88
2023-05-14T10:42:27.050Z,4.97
2023-05-14T10:45:01.803Z,3.00
2023-05-14T10:47:29.069Z,3.33
2023-05-14T10:50:02.871Z,3.38
2023-05-14T10:52:29.852Z,4.20
2023-05-14T10:54:59.215Z,4.82
2023-05-14T10:57:29.700Z,5.90
2023-05-14T11:00:00.448Z,4.13
2023-05-14T11:02:32.159Z,5.55
2023-05-14T11:05:08.237Z,3.85
2023-05-14T11:07:39.960Z,3.92
2023-05-14T11:20:10.172Z,7.72
2023-05-14T11:25:38.612Z,3.72
2023-05-14T11:50:20.736Z,5.70
2023-05-14T11:52:50.852Z,4.18
2023-05-14T11:55:17.948Z,5.00
2023-05-14T11:57:44.650Z,4.55
2023-05-14T12:00:15.736Z,4.63
2023-05-14T12:02:42.438Z,3.05
2023-05-14T12:08:29.643Z,3.25
2023-05-14T12:16:22.178Z,4.43
2023-05-14T12:21:14.510Z,4.35
2023-05-14T12:28:40.648Z,5.68
2023-05-14T12:31:07.105Z,2.88
2023-05-14T12:33:34.687Z,5.22
2023-05-14T12:36:10.039Z,3.83
2023-05-14T12:44:04.291Z,5.65
2023-05-14T13:05:35.067Z,4.55
2023-05-14T13:13:02.582Z,4.95
2023-05-14T13:15:31.530Z,5.18
2023-05-14T13:20:23.622Z,5.30
2023-05-14T13:22:50.055Z,5.20
2023-05-14T13:25:16.951Z,5.43
2023-05-14T13:30:21.828Z,3.78
2023-05-14T13:36:06.761Z,4.30
2023-05-14T13:46:20.492Z,3.30
2023-05-14T13:51:44.083Z,3.63
2023-05-14T13:54:10.764Z,4.57
2023-05-14T14:07:50.458Z,18.45
2023-05-14T14:12:56.685Z,5.53
2023-05-14T14:17:49.136Z,4.85
2023-05-14T14:20:15.655Z,4.10
2023-05-14T14:22:44.285Z,6.47
2023-05-14T14:25:12.520Z,3.33
2023-05-14T14:27:40.547Z,4.68
2023-05-14T14:30:17.176Z,3.90
2023-05-14T14:32:47.968Z,6.75
2023-05-14T14:35:15.630Z,3.00
2023-05-14T14:37:45.004Z,4.95
2023-05-14T14:40:11.756Z,4.22
2023-05-14T14:42:42.909Z,5.78
2023-05-14T14:45:10.058Z,6.55
2023-05-14T14:47:36.967Z,3.58
2023-05-14T14:52:40.826Z,6.05
2023-05-14T14:55:07.687Z,2.42
2023-05-14T14:57:34.206Z,2.30
2023-05-14T15:05:28.329Z,2.88
2023-05-14T15:10:20.026Z,6.32
2023-05-14T15:12:46.508Z,6.03
2023-05-14T15:15:12.928Z,4.95
2023-05-14T15:17:39.798Z,4.15
2023-05-14T15:20:07.457Z,4.90
2023-05-14T15:25:05.303Z,4.45
2023-05-14T15:27:31.937Z,4.72
2023-05-14T15:29:58.410Z,4.57
2023-05-14T15:32:27.048Z,3.70
2023-05-14T15:34:53.891Z,3.97
2023-05-14T15:43:48.648Z,5.22
2023-05-14T15:46:15.135Z,6.28
2023-05-14T15:48:42.133Z,4.78
2023-05-14T15:51:08.577Z,3.10
2023-05-14T15:53:35.030Z,5.70
2023-05-14T15:56:01.443Z,5.03
2023-05-14T15:58:27.951Z,3.58
2023-05-14T16:00:54.414Z,4.10
2023-05-14T16:03:21.034Z,6.85
2023-05-14T16:05:48.578Z,4.03
2023-05-14T16:08:15.037Z,2.88
2023-05-14T16:10:41.526Z,6.80
2023-05-14T16:13:07.996Z,4.30
2023-05-14T16:15:34.416Z,4.32
2023-05-14T16:18:00.926Z,4.25
2023-05-14T16:20:27.355Z,4.75
2023-05-14T16:22:53.814Z,5.80
2023-05-14T16:25:20.329Z,3.88
2023-05-14T16:27:46.827Z,3.30
2023-05-14T16:30:13.426Z,6.97
2023-05-14T16:32:41.953Z,3.72
2023-05-14T16:35:09.012Z,6.93
2023-05-14T16:40:19.760Z,4.05
2023-05-14T16:42:48.502Z,3.97
2023-05-14T16:47:50.251Z,4.07
2023-05-14T16:50:16.901Z,3.88
2023-05-14T16:55:08.986Z,3.17
2023-05-14T16:57:35.549Z,7.05
2023-05-14T17:00:05.992Z,5.50
2023-05-14T17:02:33.200Z,4.55
2023-05-14T17:05:00.015Z,4.63
2023-05-14T17:09:52.220Z,3.80
2023-05-14T17:12:18.638Z,7.40
2023-05-14T17:14:45.124Z,6.28
2023-05-14T17:17:15.846Z,6.72
2023-05-14T17:19:42.842Z,3.92
2023-05-14T17:22:09.412Z,4.95
2023-05-14T17:27:01.024Z,3.70
2023-05-14T17:31:52.815Z,5.07
2023-05-14T17:34:19.552Z,8.25
2023-05-14T17:36:46.081Z,5.28
2023-05-14T17:39:12.542Z,7.55
2023-05-14T17:41:38.990Z,5.78
2023-05-14T17:44:05.705Z,7.40
2023-05-14T17:46:33.657Z,3.28
2023-05-14T17:49:00.424Z,5.20
2023-05-14T17:51:27.018Z,4.22
2023-05-14T17:53:53.586Z,6.63
2023-05-14T17:56:20.283Z,6.38
2023-05-14T17:58:46.734Z,3.72
2023-05-14T18:01:13.187Z,9.65
2023-05-14T18:06:08.081Z,3.83
2023-05-14T18:08:34.553Z,8.15
2023-05-14T18:13:26.628Z,5.28
2023-05-14T18:15:54.276Z,4.97
2023-05-14T18:18:21.703Z,5.55
2023-05-14T18:20:49.510Z,8.20
2023-05-14T18:23:16.083Z,4.47
2023-05-14T18:25:42.741Z,9.32
2023-05-14T18:28:09.523Z,8.20
2023-05-14T18:30:36.099Z,6.22
2023-05-14T18:33:02.622Z,5.55
2023-05-14T18:35:29.074Z,4.03
2023-05-14T18:37:55.645Z,7.55
2023-05-14T18:40:22.203Z,5.97
2023-05-14T18:42:48.690Z,6.30
2023-05-14T18:45:15.277Z,7.82
2023-05-14T18:47:41.774Z,6.82
2023-05-14T18:50:08.631Z,7.70
2023-05-14T18:52:35.307Z,7.38
2023-05-14T18:55:01.802Z,5.20
2023-05-14T18:57:32.639Z,6.35
2023-05-14T19:00:01.875Z,4.82
2023-05-14T19:02:28.671Z,6.63
2023-05-14T19:04:55.511Z,5.65
2023-05-14T19:07:22.062Z,5.25
2023-05-14T19:09:48.732Z,4.50
2023-05-14T19:12:15.427Z,5.93
2023-05-14T19:14:42.051Z,5.75
2023-05-14T19:17:08.539Z,6.53
2023-05-14T19:19:35.222Z,6.97
2023-05-14T19:22:01.676Z,8.15
2023-05-14T19:24:28.110Z,7.60
2023-05-14T19:26:54.595Z,6.45
2023-05-14T19:29:21.053Z,5.32
2023-05-14T19:31:47.603Z,5.85
2023-05-14T19:34:14.033Z,4.50
2023-05-14T19:36:41.563Z,7.63
2023-05-14T19:39:07.996Z,5.47
2023-05-14T19:41:34.488Z,4.68
2023-05-14T19:44:01.027Z,8.18
2023-05-14T19:46:27.672Z,4.53
2023-05-14T19:48:54.116Z,5.88
2023-05-14T19:51:20.618Z,6.43
2023-05-14T19:53:47.032Z,5.30
2023-05-14T19:56:13.477Z,5.28
2023-05-14T19:58:40.099Z,7.78
2023-05-14T20:01:07.018Z,5.25
2023-05-14T20:03:33.635Z,6.15
2023-05-14T20:06:00.193Z,6.65
2023-05-14T20:08:26.750Z,7.78
2023-05-14T20:10:53.265Z,7.47
2023-05-14T20:13:19.761Z,8.95
2023-05-14T20:15:46.528Z,8.40
2023-05-14T20:18:13.094Z,9.68
2023-05-14T20:20:39.991Z,8.52
2023-05-14T20:23:06.455Z,6.85
2023-05-14T20:25:33.327Z,7.50
2023-05-14T20:28:02.870Z,7.82
2023-05-14T20:30:29.368Z,7.68
2023-05-14T20:32:56.112Z,10.70
2023-05-14T20:35:23.140Z,9.20
2023-05-14T20:37:49.820Z,8.95
2023-05-14T20:40:16.450Z,6.97
2023-05-14T20:42:43.037Z,8.68
2023-05-14T20:45:10.303Z,9.20
2023-05-14T20:47:36.950Z,7.63
2023-05-14T20:50:03.581Z,9.40
2023-05-14T20:52:30.132Z,7.10
2023-05-14T20:54:57.414Z,10.95
2023-05-14T20:57:25.642Z,8.68
2023-05-14T20:59:52.103Z,8.07
2023-05-14T21:02:18.710Z,8.68
2023-05-14T21:04:45.981Z,7.70
2023-05-14T21:07:12.528Z,9.55
2023-05-14T21:09:39.114Z,8.55
2023-05-14T21:12:06.162Z,8.50
2023-05-14T21:14:32.568Z,7.80
2023-05-14T21:16:58.978Z,8.60
2023-05-14T21:19:25.601Z,6.93
2023-05-14T21:21:52.199Z,9.35
2023-05-14T21:24:19.055Z,8.63
2023-05-14T21:26:45.767Z,8.57
2023-05-14T21:31:39.227Z,8.93
2023-05-14T21:39:26.588Z,8.52
2023-05-14T21:41:53.038Z,10.70
2023-05-14T21:44:21.045Z,8.50
2023-05-14T21:46:47.517Z,10.27
2023-05-14T21:49:14.003Z,10.35
2023-05-14T21:51:40.472Z,7.20
2023-05-14T21:54:07.083Z,8.25
2023-05-14T21:59:09.441Z,7.53
2023-05-14T22:01:45.880Z,7.18
2023-05-14T22:04:22.328Z,8.38
2023-05-14T22:06:48.921Z,10.43
2023-05-14T22:09:15.340Z,7.50
2023-05-14T22:11:41.778Z,8.00
2023-05-14T22:14:08.282Z,7.93
2023-05-14T22:16:34.839Z,7.05
2023-05-14T22:19:01.353Z,9.70
2023-05-14T22:21:28.019Z,7.68
2023-05-14T22:23:54.570Z,8.63
2023-05-14T22:26:21.655Z,8.23
2023-05-14T22:28:49.789Z,10.73
2023-05-14T22:31:16.396Z,10.68
2023-05-14T22:33:42.910Z,9.75
2023-05-14T22:36:10.442Z,8.68
2023-05-14T22:38:36.954Z,10.13
2023-05-14T22:41:03.372Z,10.13
2023-05-14T22:43:29.918Z,9.60
2023-05-14T22:45:56.414Z,9.68
2023-05-14T22:48:22.875Z,11.90
2023-05-14T22:50:49.418Z,10.55
2023-05-14T22:53:16.180Z,10.50
2023-05-14T22:55:42.709Z,9.90
2023-05-14T22:58:09.216Z,10.32
2023-05-14T23:00:35.905Z,10.38
2023-05-14T23:03:02.425Z,10.98
2023-05-14T23:05:28.885Z,10.25
2023-05-14T23:07:55.454Z,9.43
2023-05-14T23:10:21.971Z,11.75
2023-05-14T23:12:48.463Z,9.60
2023-05-14T23:15:14.945Z,10.77
2023-05-14T23:17:41.876Z,11.38
2023-05-14T23:20:11.123Z,10.80
2023-05-14T23:22:37.600Z,7.80
2023-05-14T23:25:04.394Z,10.52
2023-05-14T23:27:30.817Z,9.25
2023-05-14T23:29:57.252Z,9.98
2023-05-14T23:32:23.789Z,9.57
2023-05-14T23:34:50.326Z,10.70
2023-05-14T23:37:16.982Z,11.18
2023-05-14T23:39:43.548Z,10.70
2023-05-14T23:42:10.053Z,9.57
2023-05-14T23:44:36.555Z,10.80
2023-05-14T23:47:03.130Z,13.93
2023-05-14T23:49:29.613Z,10.85
2023-05-14T23:51:56.710Z,11.32
2023-05-14T23:54:23.133Z,10.02
2023-05-14T23:56:49.789Z,9.30
2023-05-14T23:59:16.251Z,9.35
